createdAt,value
2019-05-19T00:03:15.219Z,14.43
2019-05-19T00:08:18.878Z,13.33
2019-05-19T00:13:22.495Z,14.70
2019-05-19T00:18:26.086Z,15.57
2019-05-19T00:23:29.755Z,15.30
2019-05-19T00:28:33.416Z,15.53
2019-05-19T00:33:37.014Z,14.60
2019-05-19T00:38:40.613Z,15.77
2019-05-19T00:43:44.753Z,13.67
2019-05-19T00:48:48.617Z,14.50
2019-05-19T00:53:52.347Z,13.27
2019-05-19T00:58:57.540Z,13.67
2019-05-19T01:04:01.655Z,13.50
2019-05-19T01:09:06.577Z,14.23
2019-05-19T01:14:10.634Z,14.47
2019-05-19T01:19:14.336Z,14.20
2019-05-19T01:24:17.931Z,13.70
2019-05-19T01:29:21.514Z,14.03
2019-05-19T01:34:25.566Z,13.30
2019-05-19T01:39:29.160Z,12.40
2019-05-19T01:44:32.841Z,11.83
2019-05-19T01:49:36.823Z,11.00
2019-05-19T01:54:40.495Z,10.97
2019-05-19T01:59:44.149Z,10.90
2019-05-19T02:04:47.816Z,11.50
2019-05-19T02:09:51.813Z,10.87
2019-05-19T02:14:55.859Z,10.77
2019-05-19T02:19:59.533Z,10.97
2019-05-19T02:25:03.567Z,11.10
2019-05-19T02:30:08.433Z,11.67
2019-05-19T02:35:12.325Z,10.97
2019-05-19T02:40:16.557Z,11.30
2019-05-19T02:45:20.414Z,9.97
2019-05-19T02:50:25.945Z,9.60
2019-05-19T02:55:31.197Z,9.03
2019-05-19T03:00:37.269Z,9.63
2019-05-19T03:05:40.931Z,9.47
2019-05-19T03:10:45.272Z,9.43
2019-05-19T03:15:49.271Z,10.07
2019-05-19T03:21:09.746Z,9.63
2019-05-19T03:25:58.678Z,9.13
2019-05-19T03:31:04.090Z,9.03
2019-05-19T03:36:07.687Z,9.17
2019-05-19T03:41:11.297Z,9.93
2019-05-19T03:46:14.972Z,9.30
2019-05-19T03:51:30.154Z,9.00
2019-05-19T03:56:23.812Z,7.63
2019-05-19T04:01:27.498Z,8.00
2019-05-19T04:06:31.401Z,7.77
2019-05-19T04:11:35.014Z,7.83
2019-05-19T04:16:38.713Z,7.60
2019-05-19T04:21:48.613Z,7.73
2019-05-19T04:26:48.069Z,8.40
2019-05-19T04:31:51.671Z,7.87
2019-05-19T04:36:55.279Z,7.53
2019-05-19T04:41:58.895Z,7.03
2019-05-19T04:47:02.497Z,6.93
2019-05-19T04:52:07.466Z,7.77
2019-05-19T04:57:11.479Z,7.60
2019-05-19T05:02:15.114Z,8.07
2019-05-19T05:07:18.748Z,8.70
2019-05-19T05:12:22.827Z,8.33
2019-05-19T05:17:26.422Z,8.00
2019-05-19T05:22:30.340Z,8.23
2019-05-19T05:27:34.005Z,8.30
2019-05-19T05:32:37.674Z,7.27
2019-05-19T05:37:41.645Z,7.63
2019-05-19T05:42:45.678Z,7.40
2019-05-19T05:47:49.280Z,8.07
2019-05-19T05:52:52.886Z,8.70
2019-05-19T05:57:56.486Z,8.60
2019-05-19T06:03:00.086Z,10.53
2019-05-19T06:08:03.751Z,10.43
2019-05-19T06:13:07.361Z,8.90
2019-05-19T06:18:11.416Z,9.83
2019-05-19T06:23:15.079Z,8.43
2019-05-19T06:28:18.755Z,8.07
2019-05-19T06:33:22.350Z,9.00
2019-05-19T06:38:26.336Z,8.90
2019-05-19T06:43:30.281Z,8.57
2019-05-19T06:48:33.881Z,9.63
2019-05-19T06:53:37.561Z,9.67
2019-05-19T06:58:41.157Z,8.80
2019-05-19T07:03:44.767Z,8.17
2019-05-19T07:08:48.701Z,6.57
2019-05-19T07:13:52.363Z,6.60
2019-05-19T07:18:55.973Z,6.27
2019-05-19T07:23:59.566Z,7.13
2019-05-19T07:29:03.191Z,6.50
2019-05-19T07:34:06.793Z,6.33
2019-05-19T07:39:10.467Z,5.83
2019-05-19T07:44:14.134Z,5.47
2019-05-19T07:49:17.727Z,6.10
2019-05-19T07:54:21.427Z,5.90
2019-05-19T07:59:25.106Z,4.97
2019-05-19T08:04:28.702Z,4.50
2019-05-19T08:09:32.473Z,4.73
2019-05-19T08:14:36.133Z,4.60
2019-05-19T08:19:39.772Z,4.83
2019-05-19T08:24:43.445Z,5.53
2019-05-19T08:29:47.491Z,5.10
2019-05-19T08:34:51.249Z,5.20
2019-05-19T08:39:55.211Z,5.30
2019-05-19T08:44:58.838Z,5.63
2019-05-19T08:50:02.544Z,5.27
2019-05-19T08:55:06.724Z,5.57
2019-05-19T09:00:11.145Z,5.03
2019-05-19T09:05:14.882Z,5.67
2019-05-19T09:10:20.294Z,6.00
2019-05-19T09:15:24.017Z,4.77
2019-05-19T09:20:28.100Z,5.93
2019-05-19T09:25:31.776Z,6.93
2019-05-19T09:30:35.370Z,6.73
2019-05-19T09:35:38.971Z,6.77
2019-05-19T09:40:42.959Z,6.00
2019-05-19T09:45:46.625Z,5.80
2019-05-19T09:50:50.216Z,5.43
2019-05-19T09:55:53.811Z,5.33
2019-05-19T10:00:57.397Z,5.17
2019-05-19T10:06:01.143Z,5.53
2019-05-19T10:11:22.879Z,5.30
2019-05-19T10:16:26.618Z,6.20
2019-05-19T10:21:30.273Z,6.33
2019-05-19T10:26:33.942Z,6.23
2019-05-19T10:31:37.586Z,6.00
2019-05-19T10:36:41.249Z,5.40
2019-05-19T10:41:45.178Z,5.70
2019-05-19T10:46:48.894Z,7.00
2019-05-19T10:51:52.678Z,8.17
2019-05-19T10:56:56.345Z,7.77
2019-05-19T11:01:59.947Z,7.67
2019-05-19T11:07:03.923Z,8.27
2019-05-19T11:12:07.820Z,8.30
2019-05-19T11:17:11.879Z,7.90
2019-05-19T11:22:15.809Z,8.07
2019-05-19T11:27:19.473Z,8.00
2019-05-19T11:32:23.116Z,7.47
2019-05-19T11:37:27.431Z,6.97
2019-05-19T11:42:31.035Z,7.37
2019-05-19T11:47:34.651Z,6.87
2019-05-19T11:52:38.246Z,6.97
2019-05-19T11:57:41.840Z,7.40
2019-05-19T12:02:45.440Z,6.27
2019-05-19T12:07:49.432Z,6.63
2019-05-19T12:12:53.468Z,6.00
2019-05-19T12:17:57.193Z,6.10
2019-05-19T12:23:00.816Z,6.97
2019-05-19T12:28:04.477Z,6.77
2019-05-19T12:33:08.429Z,7.17
2019-05-19T12:38:12.035Z,6.27
2019-05-19T12:43:15.638Z,7.60
2019-05-19T12:48:19.854Z,6.70
2019-05-19T12:53:23.583Z,8.23
2019-05-19T12:58:27.450Z,8.57
2019-05-19T13:03:31.641Z,8.30
2019-05-19T13:08:35.592Z,9.40
2019-05-19T13:13:39.337Z,10.63
2019-05-19T13:18:43.085Z,9.23
2019-05-19T13:23:47.009Z,8.83
2019-05-19T13:28:50.979Z,6.87
2019-05-19T13:33:54.572Z,9.07
2019-05-19T13:38:58.500Z,8.50
2019-05-19T13:44:02.199Z,8.40
2019-05-19T13:49:05.964Z,8.03
2019-05-19T13:54:09.569Z,9.07
2019-05-19T13:59:15.361Z,8.30
2019-05-19T14:04:19.149Z,7.60
2019-05-19T14:09:22.749Z,7.10
2019-05-19T14:14:26.458Z,6.63
2019-05-19T14:19:30.548Z,6.30
2019-05-19T14:24:34.334Z,6.50
2019-05-19T14:29:38.260Z,5.60
2019-05-19T14:34:41.990Z,5.30
2019-05-19T14:39:45.679Z,5.43
2019-05-19T14:44:49.382Z,5.17
2019-05-19T14:49:53.080Z,5.70
2019-05-19T14:54:56.756Z,5.57
2019-05-19T15:00:03.277Z,5.37
2019-05-19T15:05:07.601Z,4.63
2019-05-19T15:10:11.342Z,5.53
2019-05-19T15:15:15.348Z,4.63
2019-05-19T15:20:19.254Z,4.87
2019-05-19T15:25:23.288Z,5.42
2019-05-19T15:30:26.886Z,4.90
2019-05-19T15:35:36.768Z,4.90
2019-05-19T15:40:35.967Z,4.90
2019-05-19T15:45:39.862Z,5.27
2019-05-19T15:50:43.585Z,5.13
2019-05-19T15:55:47.190Z,5.10
2019-05-19T16:00:50.784Z,4.97
2019-05-19T16:05:54.487Z,5.20
2019-05-19T16:10:58.330Z,5.30
2019-05-19T16:16:01.954Z,4.23
2019-05-19T16:21:06.029Z,5.40
2019-05-19T16:26:09.795Z,9.17
2019-05-19T16:31:13.418Z,6.23
2019-05-19T16:36:19.411Z,4.30
2019-05-19T16:41:23.162Z,4.80
2019-05-19T16:46:26.750Z,5.30
2019-05-19T16:51:30.793Z,4.13
2019-05-19T16:56:34.527Z,4.80
2019-05-19T17:01:41.176Z,4.17
2019-05-19T17:06:44.781Z,4.40
2019-05-19T17:11:48.763Z,3.90
2019-05-19T17:16:52.426Z,3.80
2019-05-19T17:21:56.063Z,5.10
2019-05-19T17:26:59.814Z,5.27
2019-05-19T17:32:05.915Z,3.80
2019-05-19T17:37:11.632Z,4.00
2019-05-19T17:42:15.228Z,3.90
2019-05-19T17:47:19.295Z,3.53
2019-05-19T17:52:23.041Z,3.63
2019-05-19T17:57:27.540Z,3.70
2019-05-19T18:02:31.431Z,4.10
2019-05-19T18:07:35.435Z,3.70
2019-05-19T18:12:40.119Z,3.50
2019-05-19T18:17:43.851Z,3.57
2019-05-19T18:22:49.155Z,3.20
2019-05-19T18:27:53.091Z,3.33
2019-05-19T18:32:56.776Z,2.70
2019-05-19T18:38:02.003Z,3.07
2019-05-19T18:43:05.911Z,2.90
2019-05-19T18:48:09.664Z,3.13
2019-05-19T18:53:13.337Z,3.50
2019-05-19T18:58:17.101Z,3.77
2019-05-19T19:03:21.272Z,4.30
2019-05-19T19:08:25.292Z,3.90
2019-05-19T19:13:30.941Z,5.17
2019-05-19T19:18:34.540Z,4.93
2019-05-19T19:23:38.326Z,4.87
2019-05-19T19:28:41.944Z,4.20
2019-05-19T19:33:45.911Z,3.70
2019-05-19T19:38:49.695Z,4.40
2019-05-19T19:43:53.386Z,3.93
2019-05-19T19:48:57.076Z,4.70
2019-05-19T19:54:01.154Z,4.40
2019-05-19T19:59:04.956Z,4.60
2019-05-19T20:04:09.085Z,6.57
2019-05-19T20:09:12.785Z,8.67
2019-05-19T20:14:20.026Z,7.90
2019-05-19T20:19:24.126Z,6.37
2019-05-19T20:24:29.938Z,5.70
2019-05-19T20:29:33.690Z,5.73
2019-05-19T20:34:37.460Z,5.37
2019-05-19T20:39:41.667Z,4.93
2019-05-19T20:44:45.262Z,5.70
2019-05-19T20:49:50.391Z,6.10
2019-05-19T20:54:53.952Z,8.50
2019-05-19T20:59:57.547Z,8.43
2019-05-19T21:05:01.650Z,6.50
2019-05-19T21:10:07.047Z,10.43
2019-05-19T21:15:13.832Z,9.50
2019-05-19T21:20:17.584Z,8.07
2019-05-19T21:25:21.352Z,6.77
2019-05-19T21:30:25.915Z,7.20
2019-05-19T21:35:29.592Z,6.80
2019-05-19T21:40:33.282Z,6.63
2019-05-19T21:45:37.370Z,6.40
2019-05-19T21:50:41.141Z,5.33
2019-05-19T21:55:45.100Z,5.30
2019-05-19T22:00:48.935Z,4.80
2019-05-19T22:05:53.581Z,5.00
2019-05-19T22:10:57.682Z,5.10
2019-05-19T22:16:12.496Z,5.37
2019-05-19T22:21:06.831Z,5.27
2019-05-19T22:26:10.533Z,5.13
2019-05-19T22:31:14.164Z,5.33
2019-05-19T22:36:17.909Z,4.53
2019-05-19T22:41:21.588Z,4.60
2019-05-19T22:46:25.491Z,4.50
2019-05-19T22:51:31.375Z,3.47
2019-05-19T22:56:35.047Z,2.77
2019-05-19T23:01:51.094Z,4.80
2019-05-19T23:06:44.038Z,4.40
2019-05-19T23:11:47.779Z,4.20
2019-05-19T23:16:51.520Z,3.87
2019-05-19T23:21:55.130Z,4.37
2019-05-19T23:26:58.794Z,4.20
2019-05-19T23:32:07.031Z,3.80
2019-05-19T23:37:08.053Z,3.50
2019-05-19T23:42:11.661Z,3.13
2019-05-19T23:47:15.258Z,3.00
2019-05-19T23:52:20.503Z,2.70
2019-05-19T23:57:24.180Z,2.60
